createdAt,value
2022-12-28T00:00:31.513Z,96693.19
2022-12-28T00:03:17.426Z,96684.88
2022-12-28T00:06:03.861Z,96680.94
2022-12-28T00:08:52.910Z,96678.09
2022-12-28T00:11:38.800Z,96669.78
2022-12-28T00:14:25.243Z,96670.63
2022-12-28T00:17:11.158Z,96672.44
2022-12-28T00:19:57.291Z,96667.09
2022-12-28T00:22:43.406Z,96664.72
2022-12-28T00:25:29.310Z,96668.25
2022-12-28T00:28:15.103Z,96669.03
2022-12-28T00:31:00.966Z,96682.44
2022-12-28T00:33:46.834Z,96662.84
2022-12-28T00:37:09.427Z,96672.38
2022-12-28T00:39:38.919Z,96693.13
2022-12-28T00:42:24.685Z,96688.31
2022-12-28T00:45:10.532Z,96690.81
2022-12-28T00:47:56.489Z,96700.31
2022-12-28T00:50:43.495Z,96712.69
2022-12-28T00:53:29.908Z,96715.50
2022-12-28T00:56:17.856Z,96705.59
2022-12-28T00:59:03.639Z,96706.94
2022-12-28T01:01:49.450Z,96705.13
2022-12-28T01:04:35.799Z,96695.28
2022-12-28T01:07:21.620Z,96709.03
2022-12-28T01:10:07.819Z,96697.13
2022-12-28T01:12:55.273Z,96706.66
2022-12-28T01:15:41.138Z,96713.00
2022-12-28T01:18:26.960Z,96702.59
2022-12-28T01:21:16.146Z,96710.59
2022-12-28T01:24:04.331Z,96713.44
2022-12-28T01:26:51.045Z,96725.19
2022-12-28T01:29:36.904Z,96697.66
2022-12-28T01:32:22.780Z,96703.59
2022-12-28T01:35:09.769Z,96700.25
2022-12-28T01:37:57.266Z,96705.44
2022-12-28T01:40:44.090Z,96706.44
2022-12-28T01:43:43.954Z,96704.66
2022-12-28T01:46:38.806Z,96706.19
2022-12-28T01:49:37.439Z,96699.72
2022-12-28T01:52:38.652Z,96679.25
2022-12-28T01:55:35.368Z,96685.25
2022-12-28T01:58:25.370Z,96671.44
2022-12-28T02:01:11.494Z,96672.28
2022-12-28T02:03:57.506Z,96667.31
2022-12-28T02:06:44.530Z,96671.69
2022-12-28T02:09:35.601Z,96659.25
2022-12-28T02:12:22.422Z,96669.16
2022-12-28T02:15:08.819Z,96658.94
2022-12-28T02:17:54.910Z,96670.16
2022-12-28T02:21:02.968Z,96649.78
2022-12-28T02:24:07.895Z,96656.88
2022-12-28T02:26:58.332Z,96678.63
2022-12-28T02:29:44.438Z,96674.13
2022-12-28T02:32:54.698Z,96670.41
2022-12-28T02:35:43.584Z,96673.63
2022-12-28T02:38:39.314Z,96655.97
2022-12-28T02:41:26.050Z,96658.63
2022-12-28T02:44:33.273Z,96653.75
2022-12-28T02:47:37.635Z,96645.44
2022-12-28T02:50:26.012Z,96651.78
2022-12-28T02:54:38.331Z,96641.47
2022-12-28T02:57:58.205Z,96663.28
2022-12-28T03:00:58.818Z,96646.22
2022-12-28T03:04:03.874Z,96662.00
2022-12-28T03:07:35.596Z,96658.69
2022-12-28T03:10:27.212Z,96655.25
2022-12-28T03:13:36.032Z,96658.00
2022-12-28T03:16:29.678Z,96641.91
2022-12-28T03:19:34.411Z,96652.56
2022-12-28T03:22:40.563Z,96650.06
2022-12-28T03:25:52.955Z,96638.00
2022-12-28T03:29:04.548Z,96657.78
2022-12-28T03:31:53.242Z,96647.84
2022-12-28T03:34:40.533Z,96639.22
2022-12-28T03:37:35.122Z,96651.56
2022-12-28T03:40:35.682Z,96671.47
2022-12-28T03:43:43.041Z,96654.81
2022-12-28T03:46:52.472Z,96683.03
2022-12-28T03:49:40.137Z,96687.25
2022-12-28T03:52:26.964Z,96649.41
2022-12-28T03:55:17.088Z,96665.09
2022-12-28T03:58:05.370Z,96676.16
2022-12-28T04:00:51.470Z,96677.47
2022-12-28T04:03:41.703Z,96674.41
2022-12-28T04:06:28.203Z,96669.69
2022-12-28T04:09:15.359Z,96691.25
2022-12-28T04:12:01.521Z,96691.13
2022-12-28T04:15:16.963Z,96687.63
2022-12-28T04:18:02.965Z,96661.00
2022-12-28T04:20:48.659Z,96688.91
2022-12-28T04:23:35.068Z,96664.34
2022-12-28T04:26:41.269Z,96672.22
2022-12-28T04:29:29.045Z,96680.94
2022-12-28T04:32:27.740Z,96679.06
2022-12-28T04:51:06.703Z,96676.53
2022-12-28T04:53:53.670Z,96692.66
2022-12-28T04:56:39.966Z,96680.97
2022-12-28T04:59:25.968Z,96682.69
2022-12-28T05:02:12.011Z,96680.72
2022-12-28T05:04:58.072Z,96694.16
2022-12-28T05:07:44.024Z,96694.31
2022-12-28T05:10:30.267Z,96696.81
2022-12-28T05:13:16.237Z,96700.34
2022-12-28T05:16:03.781Z,96678.34
2022-12-28T05:18:49.764Z,96688.59
2022-12-28T05:21:35.646Z,96674.88
2022-12-28T05:24:21.599Z,96693.19
2022-12-28T05:27:07.531Z,96711.31
2022-12-28T05:29:53.384Z,96699.94
2022-12-28T05:32:39.397Z,96711.00
2022-12-28T05:35:25.229Z,96703.31
2022-12-28T05:38:11.167Z,96702.72
2022-12-28T05:40:57.058Z,96702.31
2022-12-28T05:43:43.762Z,96695.16
2022-12-28T05:46:31.707Z,96692.50
2022-12-28T05:49:17.569Z,96677.78
2022-12-28T05:52:03.415Z,96693.59
2022-12-28T05:54:49.334Z,96692.66
2022-12-28T05:57:35.159Z,96682.94
2022-12-28T06:00:21.059Z,96681.97
2022-12-28T06:03:07.116Z,96681.66
2022-12-28T06:05:53.264Z,96686.31
2022-12-28T06:08:39.915Z,96692.66
2022-12-28T06:11:27.216Z,96691.94
2022-12-28T06:14:12.882Z,96682.28
2022-12-28T06:16:58.630Z,96685.34
2022-12-28T06:19:44.518Z,96695.03
2022-12-28T06:22:30.371Z,96687.63
2022-12-28T06:25:16.306Z,96692.25
2022-12-28T06:28:01.944Z,96701.63
2022-12-28T06:30:52.531Z,96700.66
2022-12-28T06:33:39.742Z,96688.31
2022-12-28T06:36:31.434Z,96698.44
2022-12-28T06:39:17.546Z,96700.09
2022-12-28T06:42:03.345Z,96693.53
2022-12-28T06:44:49.218Z,96709.94
2022-12-28T06:47:37.155Z,96704.72
2022-12-28T06:50:22.945Z,96707.94
2022-12-28T06:53:08.829Z,96704.84
2022-12-28T06:55:56.449Z,96707.78
2022-12-28T06:58:43.185Z,96706.53
2022-12-28T07:01:38.479Z,96684.13
2022-12-28T07:04:24.241Z,96694.94
2022-12-28T07:07:10.208Z,96697.00
2022-12-28T07:09:56.161Z,96699.78
2022-12-28T07:12:42.044Z,96702.19
2022-12-28T07:15:27.949Z,96700.34
2022-12-28T07:18:13.734Z,96702.91
2022-12-28T07:21:14.357Z,96694.94
2022-12-28T07:24:00.736Z,96711.88
2022-12-28T07:26:46.729Z,96687.78
2022-12-28T07:29:32.827Z,96704.28
2022-12-28T07:32:18.552Z,96714.50
2022-12-28T07:35:05.260Z,96705.38
2022-12-28T07:37:51.181Z,96699.06
2022-12-28T07:40:37.122Z,96707.88
2022-12-28T07:43:22.825Z,96719.66
2022-12-28T07:46:11.220Z,96717.81
2022-12-28T07:48:57.359Z,96698.91
2022-12-28T07:51:43.543Z,96715.16
2022-12-28T07:54:29.468Z,96715.97
2022-12-28T07:57:15.463Z,96714.88
2022-12-28T08:00:02.279Z,96712.47
2022-12-28T09:14:04.999Z,96680.94
2022-12-28T09:16:52.788Z,96701.56
2022-12-28T09:19:38.496Z,96674.63
2022-12-28T09:22:24.450Z,96669.84
2022-12-28T09:25:10.261Z,96657.19
2022-12-28T09:27:59.298Z,96667.94
2022-12-28T09:30:45.631Z,96676.25
2022-12-28T09:34:23.272Z,96666.53
2022-12-28T09:36:56.128Z,96669.94
2022-12-28T09:39:42.070Z,96658.38
2022-12-28T09:42:29.470Z,96644.44
2022-12-28T09:45:16.438Z,96653.06
2022-12-28T09:48:13.404Z,96645.31
2022-12-28T09:50:59.411Z,96649.25
2022-12-28T09:53:45.520Z,96644.16
2022-12-28T09:56:43.133Z,96636.13
2022-12-28T09:59:32.276Z,96640.41
2022-12-28T10:02:30.689Z,96643.59
2022-12-28T10:05:16.557Z,96641.84
2022-12-28T10:08:03.124Z,96641.06
2022-12-28T10:10:50.759Z,96620.16
2022-12-28T10:13:55.999Z,96629.53
2022-12-28T10:16:48.336Z,96622.06
2022-12-28T10:19:34.883Z,96622.13
2022-12-28T10:22:21.752Z,96616.59
2022-12-28T10:25:33.961Z,96617.44
2022-12-28T10:28:21.674Z,96594.38
2022-12-28T10:31:09.969Z,96609.78
2022-12-28T10:33:55.770Z,96592.09
2022-12-28T10:36:41.814Z,96576.34
2022-12-28T10:39:30.228Z,96583.66
2022-12-28T10:42:41.669Z,96567.84
2022-12-28T10:45:48.195Z,96583.31
2022-12-28T10:48:37.231Z,96567.44
2022-12-28T10:51:25.145Z,96563.50
2022-12-28T10:54:28.147Z,96549.78
2022-12-28T10:57:19.167Z,96569.31
2022-12-28T11:00:22.875Z,96565.47
2022-12-28T11:03:22.170Z,96557.63
2022-12-28T11:06:27.232Z,96569.03
2022-12-28T11:09:22.526Z,96548.69
2022-12-28T11:12:23.070Z,96556.38
2022-12-28T11:15:14.721Z,96555.25
2022-12-28T11:18:20.966Z,96552.75
2022-12-28T11:21:11.036Z,96551.91
2022-12-28T11:23:56.922Z,96527.13
2022-12-28T11:26:48.833Z,96538.53
2022-12-28T11:29:34.673Z,96529.31
2022-12-28T11:32:35.956Z,96547.94
2022-12-28T11:35:25.018Z,96548.44
2022-12-28T11:38:12.700Z,96531.69
2022-12-28T11:40:59.451Z,96523.47
2022-12-28T11:43:50.301Z,96508.06
2022-12-28T11:46:37.179Z,96534.03
2022-12-28T11:49:22.976Z,96498.53
2022-12-28T11:52:17.908Z,96499.38
2022-12-28T11:55:22.270Z,96520.31
2022-12-28T11:58:29.948Z,96510.94
2022-12-28T13:13:54.813Z,96403.63
2022-12-28T13:16:41.384Z,96398.75
2022-12-28T13:19:29.727Z,96394.19
2022-12-28T13:22:33.425Z,96385.94
2022-12-28T13:25:31.933Z,96394.19
2022-12-28T13:28:27.626Z,96385.78
2022-12-28T13:31:22.343Z,96376.38
2022-12-28T13:34:26.440Z,96373.72
2022-12-28T13:37:17.025Z,96364.44
2022-12-28T13:40:16.827Z,96384.19
2022-12-28T13:43:08.927Z,96389.47
2022-12-28T13:46:00.213Z,96390.13
2022-12-28T13:48:50.063Z,96374.03
2022-12-28T13:51:39.645Z,96343.63
2022-12-28T13:54:27.213Z,96393.56
2022-12-28T13:57:45.172Z,96392.63
2022-12-28T14:00:22.405Z,96378.13
2022-12-28T14:03:11.362Z,96401.03
2022-12-28T14:06:02.664Z,96389.56
2022-12-28T14:08:51.230Z,96391.09
2022-12-28T14:11:38.609Z,96386.84
2022-12-28T14:14:25.888Z,96389.53
2022-12-28T14:17:13.438Z,96380.06
2022-12-28T14:19:59.785Z,96384.41
2022-12-28T14:22:47.193Z,96374.19
2022-12-28T14:25:42.589Z,96385.41
2022-12-28T14:28:38.043Z,96371.81
2022-12-28T14:31:28.159Z,96369.38
2022-12-28T14:34:30.307Z,96361.28
2022-12-28T14:37:29.267Z,96374.56
2022-12-28T14:40:32.733Z,96366.78
2022-12-28T14:43:25.667Z,96367.16
2022-12-28T14:46:36.105Z,96386.28
2022-12-28T14:49:35.060Z,96378.44
2022-12-28T14:52:23.218Z,96390.31
2022-12-28T14:55:22.447Z,96398.75
2022-12-28T14:58:20.099Z,96389.38
2022-12-28T15:01:11.269Z,96387.06
2022-12-28T15:04:05.882Z,96404.81
2022-12-28T15:06:55.441Z,96414.34
2022-12-28T15:09:44.166Z,96396.97
2022-12-28T15:39:48.260Z,96426.09
2022-12-28T15:42:40.094Z,96415.28
2022-12-28T15:45:26.404Z,96401.28
2022-12-28T15:48:12.353Z,96420.72
2022-12-28T15:50:57.959Z,96431.59
2022-12-28T15:53:43.914Z,96428.75
2022-12-28T15:56:32.036Z,96437.47
2022-12-28T15:59:18.019Z,96439.28
2022-12-28T17:13:07.883Z,96480.25
2022-12-28T17:15:54.196Z,96467.34
2022-12-28T17:18:40.084Z,96479.03
2022-12-28T17:21:26.348Z,96476.59
2022-12-28T17:24:12.262Z,96468.03
2022-12-28T17:27:05.206Z,96471.34
2022-12-28T17:29:53.804Z,96473.78
2022-12-28T17:32:39.787Z,96471.44
2022-12-28T17:35:26.194Z,96483.88
2022-12-28T17:38:12.286Z,96465.91
2022-12-28T17:40:58.095Z,96468.88
2022-12-28T17:43:52.596Z,96487.53
2022-12-28T17:46:41.007Z,96488.38
2022-12-28T17:49:27.305Z,96478.59
2022-12-28T17:52:17.391Z,96501.16
2022-12-28T17:55:03.770Z,96511.38
2022-12-28T17:57:49.786Z,96503.97
2022-12-28T18:29:46.114Z,96481.81
2022-12-28T18:32:32.527Z,96504.31
2022-12-28T18:35:18.744Z,96487.09
2022-12-28T18:38:05.247Z,96512.22
2022-12-28T18:40:53.853Z,96494.28
2022-12-28T18:43:41.699Z,96511.50
2022-12-28T18:46:29.165Z,96496.94
2022-12-28T18:49:17.039Z,96501.78
2022-12-28T18:52:04.354Z,96509.19
2022-12-28T18:54:51.552Z,96508.75
2022-12-28T18:57:39.671Z,96520.25
2022-12-28T19:00:27.210Z,96517.28
2022-12-28T19:03:14.655Z,96515.59
2022-12-28T19:06:04.649Z,96520.63
2022-12-28T19:08:53.027Z,96521.19
2022-12-28T19:11:40.565Z,96518.22
2022-12-28T19:14:28.056Z,96513.88
2022-12-28T19:17:14.453Z,96497.38
2022-12-28T19:20:01.713Z,96502.66
2022-12-28T19:22:48.365Z,96483.94
2022-12-28T19:25:39.777Z,96499.31
2022-12-28T19:28:26.426Z,96495.81
2022-12-28T20:16:30.923Z,96503.47
2022-12-28T20:19:16.859Z,96526.34
2022-12-28T20:22:03.035Z,96528.44
2022-12-28T20:24:48.923Z,96529.41
2022-12-28T20:27:35.147Z,96525.63
2022-12-28T20:30:21.228Z,96532.47
2022-12-28T20:33:07.177Z,96506.81
2022-12-28T20:36:00.810Z,96520.06
2022-12-28T20:38:47.797Z,96519.63
2022-12-28T20:41:52.563Z,96508.56
2022-12-28T20:44:38.784Z,96516.81
2022-12-28T20:47:24.964Z,96521.81
2022-12-28T20:50:10.893Z,96509.22
2022-12-28T20:52:56.710Z,96505.41
2022-12-28T20:55:42.705Z,96502.31
2022-12-28T20:58:28.643Z,96505.81
2022-12-28T21:01:15.746Z,96496.31
2022-12-28T21:04:01.688Z,96506.22
2022-12-28T21:06:47.480Z,96513.75
2022-12-28T21:09:33.444Z,96503.25
2022-12-28T21:12:19.277Z,96508.44
2022-12-28T21:15:05.703Z,96515.16
2022-12-28T21:17:51.621Z,96492.03
2022-12-28T21:20:39.308Z,96503.09
2022-12-28T21:23:25.067Z,96512.19
2022-12-28T21:26:16.442Z,96503.91
2022-12-28T21:29:02.506Z,96518.59
2022-12-28T21:31:48.525Z,96495.66
2022-12-28T21:34:34.328Z,96506.44
2022-12-28T21:37:35.369Z,96494.53
2022-12-28T21:40:21.474Z,96509.78
2022-12-28T21:43:07.320Z,96507.09
2022-12-28T21:46:12.277Z,96511.59
2022-12-28T21:48:58.079Z,96509.47
2022-12-28T21:51:44.085Z,96501.78
2022-12-28T21:54:30.287Z,96503.31
2022-12-28T21:57:16.121Z,96504.00
2022-12-28T22:00:22.049Z,96471.84
2022-12-28T22:03:26.706Z,96488.16
2022-12-28T22:06:12.809Z,96485.50
2022-12-28T22:09:17.200Z,96490.00
2022-12-28T22:12:22.033Z,96486.63
2022-12-28T22:15:28.160Z,96485.06
2022-12-28T22:18:53.204Z,96477.34
2022-12-28T22:21:29.476Z,96478.06
2022-12-28T22:25:29.457Z,96485.78
2022-12-28T22:28:15.999Z,96485.78
2022-12-28T22:31:08.785Z,96470.00
2022-12-28T22:33:55.634Z,96495.88
2022-12-28T22:36:41.857Z,96477.78
2022-12-28T22:39:27.497Z,96495.03
2022-12-28T22:42:15.569Z,96490.84
2022-12-28T22:45:01.345Z,96493.34
2022-12-28T22:47:48.163Z,96487.16
2022-12-28T22:50:39.663Z,96491.66
2022-12-28T22:53:28.645Z,96484.94
2022-12-28T22:56:20.058Z,96494.31
2022-12-28T22:59:07.662Z,96491.66
2022-12-28T23:01:56.937Z,96496.00
2022-12-28T23:04:42.685Z,96488.44
2022-12-28T23:07:28.581Z,96489.72
2022-12-28T23:10:14.845Z,96484.38
2022-12-28T23:13:00.631Z,96465.75
2022-12-28T23:15:55.197Z,96480.00
2022-12-28T23:18:59.648Z,96478.06
2022-12-28T23:22:04.358Z,96469.06
2022-12-28T23:25:08.544Z,96462.34
2022-12-28T23:27:54.342Z,96454.63
2022-12-28T23:30:43.032Z,96433.25
2022-12-28T23:33:28.862Z,96460.22
2022-12-28T23:36:14.680Z,96432.94
2022-12-28T23:39:00.555Z,96443.84
2022-12-28T23:41:49.319Z,96433.47
2022-12-28T23:44:35.583Z,96437.69
2022-12-28T23:47:21.460Z,96437.69
2022-12-28T23:50:08.329Z,96442.88
2022-12-28T23:52:54.123Z,96445.25
2022-12-28T23:55:40.068Z,96440.03
2022-12-28T23:58:25.997Z,96431.53
